Herschel Island, Yukon

Past 24 Hour Conditions

This table is a summary of hourly weather conditions for the past 24 hours. This summary includes the following parameters: temperature, humidity, dew point, wind speed and direction, air pressure, visibility and/or wind chill and humidex.
Date / Time
(PDT)
Conditions Temp (°F) Humidity (%) Dew Point (°F) Wind (mph) Pressure (inches) Visibility (miles)
27 August 2014
20:00 N/A 44 95 42 NNW 11 29.6 N/A
19:00 N/A 51   78 44 WNW 3 29.6 N/A
18:00 N/A 45 89 42 calm 29.6 N/A
17:00 N/A 48 84 43 N 3 29.6 N/A
16:00 N/A 48 82 43 NE 7 29.6 N/A
15:00 N/A 50 75 43 NNE 4 29.6 N/A
14:00 N/A 45 78 39 ESE 5 29.7 N/A
13:00 N/A 44 80 38 calm 29.7 N/A
12:00 N/A 42 83 37 S 4 29.7 N/A
11:00 N/A 41 83 37 SSE 3 29.7 N/A
10:00 N/A 40 91 38 SSE 4 29.7 N/A
9:00 N/A 40 96 39 E 2 29.7 N/A
8:00 N/A 38 98 38 SSE 2 29.7 N/A
7:00 N/A 34   98 34 calm 29.7 N/A
6:00 N/A 36 98 36 SW 2 29.7 N/A
5:00 N/A 36 98 36 SSE 2 29.7 N/A
4:00 N/A 37 97 36 W 3 29.7 N/A
3:00 N/A 37 96 36 calm 29.7 N/A
2:00 N/A 41 96 40 ESE 7 29.7 N/A
1:00 N/A 41 95 40 ESE 5 29.7 N/A
00:00 N/A 43 94 41 ESE 9 29.7 N/A
26 August 2014
23:00 N/A 44 93 42 ESE 12 29.7 N/A
22:00 N/A 45 91 43 ESE 12 29.7 N/A
21:00 N/A 46 88 43 E 9 29.7 N/A
20:00 N/A 47 87 43 E 10 29.7 N/A
N/A
Not available
 ↑ 
Highest temperature
 ↓ 
Lowest temperature

If you require additional historical weather information, please visit Climate Data Online.